Time;durP1;ratioP1;P1;durP2;ratioP2;P2;SDS_P1;SDS_P2;PMS_P1;PMS_P2;Temp;Humidity;BMP_temperature;BMP_pressure;BME280_temperature;BME280_humidity;BME280_pressure;Samples;Min_cycle;Max_cycle;Signal;HPM_P1;HPM_P2
2022/10/05 00:00:43;;;;;;;7.88;5.50;;;;;;;13.58;100.00;101379.88;13052867;22;20018;-89
2022/10/05 00:05:44;;;;;;;7.93;5.63;;;;;;;13.90;100.00;101410.34;13120423;22;20025;-89
2022/10/05 00:10:45;;;;;;;11.35;6.32;;;;;;;13.35;100.00;101348.69;13121023;22;20036;-88
2022/10/05 00:15:46;;;;;;;10.45;5.57;;;;;;;13.52;100.00;101404.75;13110519;22;19999;-88
2022/10/05 00:20:47;;;;;;;11.15;6.00;;;;;;;14.28;100.00;101522.84;13112366;22;19998;-87
2022/10/05 00:25:48;;;;;;;10.45;6.65;;;;;;;12.94;100.00;101265.34;13126191;22;20073;-88
2022/10/05 00:30:48;;;;;;;10.40;6.13;;;;;;;13.95;100.00;101451.06;13122209;22;20014;-88
2022/10/05 00:35:52;;;;;;;9.80;6.13;;;;;;;13.11;100.00;101290.09;13095821;22;20047;-90
2022/10/05 00:41:12;;;;;;;11.00;6.13;;;;;;;13.87;100.00;101406.19;13137878;22;20025;-90
2022/10/05 00:46:26;;;;;;;8.13;5.60;;;;;;;13.49;100.00;101338.88;13122991;22;20081;-89
2022/10/05 00:51:29;;;;;;;9.23;5.85;;;;;;;13.34;100.00;101297.25;13052104;22;20023;-90
2022/10/05 00:56:32;;;;;;;9.70;5.40;;;;;;;14.66;100.00;101490.47;13024330;22;20140;-90
2022/10/05 01:01:40;;;;;;;6.72;5.07;;;;;;;14.63;100.00;101524.22;13070240;22;20329;-89
2022/10/05 01:07:18;;;;;;;8.45;6.00;;;;;;;13.86;100.00;101392.59;13103501;22;20010;-89
2022/10/05 01:12:46;;;;;;;6.88;5.32;;;;;;;14.67;100.00;101469.13;13038884;22;20374;-89
2022/10/05 01:17:53;;;;;;;10.32;5.40;;;;;;;13.23;100.00;101262.25;13005272;22;20069;-90
2022/10/05 01:23:05;;;;;;;7.55;5.30;;;;;;;14.26;100.00;101391.25;13021208;22;20064;-90
2022/10/05 01:28:22;;;;;;;8.40;5.30;;;;;;;13.10;100.00;101205.50;13067860;22;20046;-90
2022/10/05 01:33:30;;;;;;;12.02;4.68;;;;;;;14.59;100.00;101456.59;13088570;22;19999;-89
2022/10/05 01:38:59;;;;;;;9.93;4.80;;;;;;;14.56;100.00;101443.28;13027430;22;20035;-90
2022/10/05 01:44:05;;;;;;;7.85;5.25;;;;;;;14.57;100.00;101436.63;13055593;22;20067;-89
2022/10/05 01:49:27;;;;;;;8.73;4.53;;;;;;;14.54;100.00;101434.38;13084569;22;20074;-89
2022/10/05 01:54:43;;;;;;;10.43;5.32;;;;;;;13.06;100.00;101201.59;13055192;22;20006;-89
2022/10/05 02:00:06;;;;;;;8.73;5.13;;;;;;;14.57;100.00;101427.47;13096913;22;20006;-89
2022/10/05 02:05:15;;;;;;;12.07;5.90;;;;;;;13.37;100.00;101241.41;13105668;22;20002;-90
2022/10/05 02:10:21;;;;;;;9.75;5.35;;;;;;;13.15;100.00;101224.03;13053637;22;20471;-90
2022/10/05 02:15:36;;;;;;;8.18;5.45;;;;;;;13.57;100.00;101284.19;13097394;22;19998;-90
2022/10/05 02:20:37;;;;;;;9.05;4.88;;;;;;;12.97;100.00;101192.13;12939551;22;20006;-90
2022/10/05 02:25:38;;;;;;;10.35;6.72;;;;;;;13.23;100.00;101256.75;13044194;22;20360;-89
2022/10/05 02:30:46;;;;;;;10.68;5.72;;;;;;;13.58;100.00;101281.16;13015097;22;20022;-90
2022/10/05 02:35:49;;;;;;;8.95;5.82;;;;;;;13.95;100.00;101345.88;13057912;22;20006;-89
2022/10/05 02:41:28;;;;;;;10.07;5.90;;;;;;;12.53;100.00;101159.94;13005369;22;20436;-89
2022/10/05 02:46:29;;;;;;;12.88;6.93;;;;;;;13.72;100.00;101318.34;13035196;22;20539;-90
2022/10/05 02:51:55;;;;;;;11.63;7.10;;;;;;;14.30;100.00;101393.22;13041499;22;20023;-89
2022/10/05 02:57:11;;;;;;;12.20;8.10;;;;;;;14.29;100.00;101394.31;13052296;22;20002;-90
2022/10/05 03:02:22;;;;;;;12.98;7.45;;;;;;;13.95;100.00;101343.13;13057798;22;20387;-89
2022/10/05 03:07:28;;;;;;;13.20;7.88;;;;;;;13.18;100.00;101227.13;13105200;22;20325;-89
2022/10/05 03:12:37;;;;;;;9.80;6.77;;;;;;;14.31;100.00;101405.13;13019766;22;20018;-89
2022/10/05 03:17:52;;;;;;;12.65;7.75;;;;;;;13.78;100.00;101330.25;13069293;22;20081;-89
2022/10/05 03:22:57;;;;;;;11.15;7.10;;;;;;;12.52;100.00;101090.03;13013140;22;20014;-88
2022/10/05 03:27:58;;;;;;;13.70;6.90;;;;;;;14.33;100.00;101381.59;12999612;22;20026;-91
2022/10/05 03:33:13;;;;;;;8.57;5.38;;;;;;;13.95;100.00;101329.28;13107461;22;20018;-88
2022/10/05 03:38:33;;;;;;;11.05;6.55;;;;;;;13.82;100.00;101312.03;13149098;22;19999;-89
2022/10/05 03:43:51;;;;;;;12.88;6.75;;;;;;;13.45;100.00;101257.50;13010227;22;20026;-89
2022/10/05 03:49:34;;;;;;;13.95;6.15;;;;;;;12.32;100.00;101065.84;13060263;22;20025;-91
2022/10/05 03:54:49;;;;;;;9.88;6.15;;;;;;;12.57;100.00;101103.06;12997567;22;20064;-90
2022/10/05 04:00:26;;;;;;;9.63;5.75;;;;;;;12.38;100.00;101029.97;13059726;22;20045;-91
2022/10/05 04:05:35;;;;;;;9.57;6.63;;;;;;;13.16;100.00;101198.06;13076644;22;20351;-90
2022/10/05 04:10:53;;;;;;;10.90;6.13;;;;;;;13.38;100.00;101234.78;13090006;22;20011;-90
2022/10/05 04:16:22;;;;;;;11.07;5.82;;;;;;;12.75;100.00;101115.66;12977879;22;20006;-91
2022/10/05 04:21:36;;;;;;;9.82;5.72;;;;;;;13.83;100.00;101294.34;13077420;22;20006;-89
2022/10/05 04:26:51;;;;;;;11.27;5.95;;;;;;;13.71;100.00;101254.97;13054047;22;20309;-89
2022/10/05 04:32:02;;;;;;;13.50;6.28;;;;;;;13.68;100.00;101258.25;13052442;22;20033;-89
2022/10/05 04:37:07;;;;;;;8.23;6.18;;;;;;;13.59;100.00;101251.53;13049220;22;20006;-87
2022/10/05 04:42:31;;;;;;;10.45;7.07;;;;;;;13.83;100.00;101272.19;13047843;22;20374;-88
2022/10/05 04:48:07;;;;;;;8.23;6.30;;;;;;;12.89;100.00;101118.81;13101265;22;20045;-88
2022/10/05 04:53:22;;;;;;;10.88;6.75;;;;;;;13.70;100.00;101240.31;13029691;22;20093;-88
2022/10/05 04:58:53;;;;;;;11.77;7.00;;;;;;;13.24;100.00;101197.59;13000212;22;20010;-88
2022/10/05 05:04:01;;;;;;;14.95;7.03;;;;;;;13.25;100.00;101177.13;13002338;22;20007;-87
2022/10/05 05:09:20;;;;;;;11.85;7.80;;;;;;;12.15;100.00;101026.47;13050149;22;20021;-87
2022/10/05 05:14:30;;;;;;;12.98;7.68;;;;;;;12.68;100.00;101115.88;13053354;22;20060;-87
2022/10/05 05:20:04;;;;;;;11.10;8.00;;;;;;;13.00;100.00;101181.38;12989859;22;19999;-88
2022/10/05 05:25:28;;;;;;;11.60;7.45;;;;;;;13.52;100.00;101227.72;13085015;22;20085;-88
2022/10/05 05:30:28;;;;;;;15.15;8.07;;;;;;;13.43;100.00;101229.28;13022211;22;20011;-88
2022/10/05 05:35:56;;;;;;;12.57;7.55;;;;;;;13.09;100.00;101151.31;13079718;22;20490;-88
2022/10/05 05:41:11;;;;;;;11.82;7.55;;;;;;;13.99;100.00;101292.50;13026876;22;20011;-88
2022/10/05 05:46:26;;;;;;;15.90;8.13;;;;;;;13.18;100.00;101176.53;13058576;22;19998;-89
2022/10/05 05:51:35;;;;;;;13.85;7.97;;;;;;;13.97;100.00;101300.22;13017927;22;20471;-88
2022/10/05 05:56:39;;;;;;;14.73;8.65;;;;;;;13.39;100.00;101227.31;12977108;22;20003;-88
2022/10/05 06:01:44;;;;;;;16.08;8.70;;;;;;;12.99;100.00;101190.75;13049824;22;20006;-88
2022/10/05 06:06:47;;;;;;;13.93;8.75;;;;;;;12.08;100.00;101050.69;13008387;22;20002;-88
2022/10/05 06:12:03;;;;;;;12.55;8.35;;;;;;;13.33;100.00;101209.84;13062115;22;20029;-88
2022/10/05 06:17:10;;;;;;;15.43;9.82;;;;;;;13.06;100.00;101168.41;13036081;22;20026;-89
2022/10/05 06:22:41;;;;;;;16.30;9.15;;;;;;;13.90;100.00;101299.63;12962159;22;20014;-88
2022/10/05 06:28:11;;;;;;;13.05;9.00;;;;;;;13.90;100.00;101300.47;13080667;22;20020;-88
2022/10/05 06:33:29;;;;;;;13.00;9.48;;;;;;;13.89;100.00;101304.34;13080059;22;20030;-88
2022/10/05 06:38:42;;;;;;;14.70;9.07;;;;;;;12.49;100.00;101114.59;13067061;22;20010;-87
2022/10/05 06:43:45;;;;;;;17.08;10.02;;;;;;;13.55;100.00;101278.91;13019790;22;20017;-88
2022/10/05 06:49:01;;;;;;;10.88;8.35;;;;;;;13.87;100.00;101317.63;13069825;22;20059;-89
2022/10/05 06:54:24;;;;;;;13.88;9.18;;;;;;;13.95;100.00;101307.13;13073547;22;20003;-88
2022/10/05 06:59:46;;;;;;;12.60;9.07;;;;;;;13.65;100.00;101267.09;13017104;22;20052;-88
2022/10/05 07:05:09;;;;;;;13.55;9.15;;;;;;;14.07;100.00;101310.53;13074612;22;20011;-88
2022/10/05 07:10:32;;;;;;;15.43;8.80;;;;;;;12.84;100.00;101132.59;13068126;22;20023;-90
2022/10/05 07:15:41;;;;;;;15.32;8.65;;;;;;;13.68;100.00;101269.31;12975871;22;20075;-86
2022/10/05 07:20:51;;;;;;;14.82;9.57;;;;;;;11.99;100.00;100972.22;13090385;22;20007;-87
2022/10/05 07:26:05;;;;;;;12.00;9.52;;;;;;;12.97;100.00;101151.50;13112071;22;20002;-85
2022/10/05 07:31:08;;;;;;;15.02;8.38;;;;;;;14.07;100.00;101332.69;13118794;22;20021;-87
2022/10/05 07:42:17;;;;;;;12.30;8.25;;;;;;;13.47;100.00;101158.50;13100691;22;20010;-87
2022/10/05 07:47:25;;;;;;;13.63;8.45;;;;;;;12.54;100.00;101026.25;13008744;22;20077;-88
2022/10/05 07:52:40;;;;;;;9.85;8.30;;;;;;;13.00;100.00;101103.13;12988668;22;20105;-90
2022/10/05 07:58:02;;;;;;;14.32;8.32;;;;;;;14.34;100.00;101310.41;12854497;22;20023;-91
2022/10/05 08:03:12;;;;;;;11.85;8.75;;;;;;;12.59;100.00;101025.47;12902724;22;20345;-89
2022/10/05 08:08:55;;;;;;;12.30;8.52;;;;;;;14.53;100.00;101280.31;12884512;22;20020;-90
2022/10/05 08:14:03;;;;;;;9.70;7.70;;;;;;;13.21;100.00;101076.47;13098769;22;20440;-89
2022/10/05 08:19:07;;;;;;;12.50;7.25;;;;;;;13.95;100.00;101143.81;12967309;22;20439;-89
2022/10/05 08:24:44;;;;;;;10.27;7.50;;;;;;;14.89;100.00;101288.78;12992092;22;20434;-90
2022/10/05 08:30:04;;;;;;;9.18;7.20;;;;;;;12.93;100.00;100945.84;13006101;22;20023;-90
2022/10/05 08:35:20;;;;;;;8.75;7.00;;;;;;;15.06;100.00;101260.81;12926407;22;20003;-91
2022/10/05 08:40:38;;;;;;;9.98;7.35;;;;;;;13.73;100.00;101050.78;12982798;22;20014;-91
2022/10/05 08:46:16;;;;;;;8.73;6.93;;;;;;;15.18;100.00;101258.63;12935367;22;20383;-90
2022/10/05 08:51:26;;;;;;;9.88;7.53;;;;;;;14.24;100.00;101095.22;12991252;22;20534;-90
2022/10/05 08:56:40;;;;;;;10.98;7.32;;;;;;;15.08;100.00;101189.28;12987065;22;20086;-90
2022/10/05 09:02:03;;;;;;;10.40;7.20;;;;;;;15.62;100.00;101240.56;13001269;22;20013;-88
2022/10/05 09:07:19;;;;;;;10.63;6.47;;;;;;;15.24;100.00;101152.09;13035428;22;20011;-85
2022/10/05 09:12:25;;;;;;;10.00;5.20;;;;;;;16.09;100.00;101226.34;13069319;22;20019;-86
2022/10/05 09:18:03;;;;;;;8.82;5.00;;;;;;;14.95;100.00;101054.00;13055803;22;20051;-91
2022/10/05 09:23:13;;;;;;;8.70;5.72;;;;;;;16.18;100.00;101226.56;12859728;22;20060;-89
2022/10/05 09:28:39;;;;;;;7.00;5.70;;;;;;;16.19;100.00;101217.13;13042263;22;20085;-92
2022/10/05 09:33:58;;;;;;;7.13;4.78;;;;;;;16.18;100.00;101184.09;13086339;22;20003;-87
2022/10/05 09:39:16;;;;;;;5.80;4.65;;;;;;;15.74;100.00;101116.22;13067979;22;20015;-90
2022/10/05 09:44:40;;;;;;;7.80;4.90;;;;;;;15.52;100.00;101086.88;12921044;22;20003;-89
2022/10/05 09:49:47;;;;;;;9.80;5.45;;;;;;;16.40;100.00;101194.81;13058757;22;20018;-89
2022/10/05 09:55:06;;;;;;;6.78;3.50;;;;;;;16.40;100.00;101201.19;13075626;22;20003;-90
2022/10/05 10:00:13;;;;;;;5.72;3.97;;;;;;;16.05;100.00;101150.25;12989772;22;20014;-89
2022/10/05 10:05:42;;;;;;;4.70;3.97;;;;;;;16.17;100.00;101147.16;13079324;22;20400;-87
2022/10/05 10:10:47;;;;;;;5.38;3.45;;;;;;;16.49;100.00;101182.81;13012979;22;20023;-92
2022/10/05 10:16:12;;;;;;;6.72;3.42;;;;;;;16.20;100.00;101124.34;12886000;22;20003;-93
2022/10/05 10:21:25;;;;;;;;;;;;;;;;;;;;;
2022/10/05 10:27:06;;;;;;;5.43;3.33;;;;;;;16.56;100.00;101176.94;13055447;22;20326;-90
2022/10/05 10:32:31;;;;;;;5.25;3.70;;;;;;;16.41;100.00;101185.34;13003734;22;20460;-91
2022/10/05 10:37:51;;;;;;;6.00;4.03;;;;;;;15.23;100.00;101030.34;13027134;22;20023;-88
2022/10/05 10:43:00;;;;;;;6.97;3.90;;;;;;;15.37;100.00;101039.72;13040197;22;20011;-92
2022/10/05 10:48:03;;;;;;;7.00;4.20;;;;;;;16.05;100.00;101152.19;12995018;22;20015;-89
2022/10/05 10:53:32;;;;;;;5.03;3.65;;;;;;;16.55;100.00;101186.38;13028998;22;20021;-90
2022/10/05 10:58:51;;;;;;;6.00;4.20;;;;;;;16.21;100.00;101114.91;13092569;22;20016;-89
2022/10/05 11:04:16;;;;;;;6.30;4.38;;;;;;;16.53;100.00;101186.66;13089540;22;20003;-88
2022/10/05 11:09:41;;;;;;;6.15;3.75;;;;;;;16.36;100.00;101177.88;13101237;22;20014;-88
2022/10/05 11:14:57;;;;;;;6.95;4.13;;;;;;;16.10;100.00;101135.50;13019630;22;20007;-87
2022/10/05 11:20:19;;;;;;;8.13;4.38;;;;;;;16.46;100.00;101172.28;13050504;22;20011;-88
2022/10/05 11:26:04;;;;;;;7.25;4.65;;;;;;;16.58;100.00;101176.63;13077560;22;20005;-87
2022/10/05 11:31:23;;;;;;;4.30;3.90;;;;;;;16.16;100.00;101095.47;13058970;22;20093;-88
2022/10/05 11:36:50;;;;;;;4.28;3.50;;;;;;;16.86;100.00;101153.69;13089830;22;20022;-87
2022/10/05 11:42:15;;;;;;;5.95;3.55;;;;;;;16.90;100.00;101159.50;13007051;22;20011;-89
2022/10/05 11:47:30;;;;;;;8.35;3.78;;;;;;;15.66;100.00;100980.78;13093817;22;20044;-87
2022/10/05 11:52:47;;;;;;;5.63;2.95;;;;;;;16.22;100.00;101038.78;13077278;22;20011;-88
2022/10/05 11:58:12;;;;;;;5.68;3.83;;;;;;;16.10;100.00;101052.19;13105002;22;20081;-87
2022/10/05 12:03:35;;;;;;;4.88;3.30;;;;;;;17.02;100.00;101143.28;13093463;22;20006;-82
2022/10/05 12:08:44;;;;;;;3.58;2.78;;;;;;;16.99;100.00;101160.56;13133203;22;20139;-88
2022/10/05 12:13:56;;;;;;;4.57;2.30;;;;;;;16.99;100.00;101143.88;13089773;22;20021;-86
2022/10/05 12:19:00;;;;;;;4.22;2.70;;;;;;;16.78;100.00;101142.31;13107821;22;20007;-84
2022/10/05 12:24:24;;;;;;;5.90;2.85;;;;;;;16.59;100.00;101137.44;13159689;22;20324;-84
2022/10/05 12:29:46;;;;;;;3.75;2.60;;;;;;;16.64;100.00;101140.22;13133435;22;20088;-82
2022/10/05 12:34:58;;;;;;;3.35;2.33;;;;;;;16.07;100.00;101052.78;13118380;22;20007;-86
2022/10/05 12:40:05;;;;;;;4.68;2.30;;;;;;;15.45;100.00;100975.34;13132885;22;20056;-84
2022/10/05 12:45:05;;;;;;;5.50;2.42;;;;;;;16.45;100.00;101142.81;13108708;22;20324;-84
2022/10/05 12:50:27;;;;;;;8.30;3.15;;;;;;;15.54;100.00;101018.03;13106403;22;20030;-85
2022/10/05 12:55:41;;;;;;;2.50;2.30;;;;;;;16.20;100.00;101092.97;13066039;22;20504;-84
2022/10/05 13:00:50;;;;;;;5.50;2.63;;;;;;;15.76;100.00;101049.34;13102936;22;20034;-85
2022/10/05 13:06:06;;;;;;;5.05;3.15;;;;;;;16.53;100.00;101136.63;13105579;22;20332;-86
2022/10/05 13:11:19;;;;;;;5.70;3.00;;;;;;;16.53;100.00;101139.41;13107638;22;20033;-85
2022/10/05 13:16:32;;;;;;;4.38;3.05;;;;;;;15.80;100.00;101015.16;13108574;22;20378;-85
2022/10/05 13:21:54;;;;;;;4.97;2.72;;;;;;;16.70;100.00;101125.16;13104692;22;20085;-85
2022/10/05 13:27:00;;;;;;;4.03;2.60;;;;;;;16.14;100.00;101019.94;13132428;22;20085;-86
2022/10/05 13:32:08;;;;;;;6.47;3.25;;;;;;;16.64;100.00;101103.22;13080007;22;20431;-87
2022/10/05 13:37:30;;;;;;;10.95;3.67;;;;;;;16.18;100.00;100995.19;13109385;22;20508;-85
2022/10/05 13:42:38;;;;;;;7.82;3.15;;;;;;;15.84;100.00;100923.81;13115882;22;20033;-88
2022/10/05 13:47:49;;;;;;;5.68;3.00;;;;;;;16.78;100.00;101059.72;13104585;22;20018;-89
2022/10/05 13:52:49;;;;;;;5.50;3.03;;;;;;;17.03;100.00;101044.81;13106316;22;20083;-88
2022/10/05 13:58:04;;;;;;;7.28;2.78;;;;;;;16.06;100.00;100848.38;13133897;22;20006;-89
2022/10/05 14:03:05;;;;;;;4.28;2.85;;;;;;;16.65;100.00;100936.16;13110156;22;20002;-90
2022/10/05 14:08:05;;;;;;;8.90;3.05;;;;;;;17.71;100.00;101071.59;13085538;22;20579;-89
2022/10/05 14:13:23;;;;;;;7.13;3.42;;;;;;;16.37;100.00;100910.03;13126259;22;20489;-90
2022/10/05 14:18:25;;;;;;;3.97;2.42;;;;;;;17.10;100.00;100998.00;13083138;22;20006;-87
2022/10/05 14:23:26;;;;;;;6.90;2.80;;;;;;;17.15;100.00;100939.50;13103038;22;20030;-89
2022/10/05 14:28:28;;;;;;;4.13;2.65;;;;;;;17.57;100.00;100958.44;13101143;22;20009;-89
2022/10/05 14:33:30;;;;;;;5.53;2.40;;;;;;;17.49;100.00;100983.06;13153042;22;20010;-88
2022/10/05 14:38:49;;;;;;;4.75;2.38;;;;;;;16.89;100.00;100902.84;13101740;22;20002;-90
2022/10/05 14:44:04;;;;;;;4.18;2.70;;;;;;;17.68;100.00;101001.75;13107111;22;20005;-90
2022/10/05 14:49:32;;;;;;;6.65;2.28;;;;;;;16.90;100.00;100873.88;13092533;22;20018;-90
2022/10/05 14:54:40;;;;;;;6.50;2.35;;;;;;;17.12;100.00;100925.38;13077961;22;20054;-89
2022/10/05 14:59:55;;;;;;;4.22;2.30;;;;;;;17.82;100.00;101035.22;13123371;22;20009;-90
2022/10/05 15:04:59;;;;;;;4.60;2.17;;;;;;;16.64;100.00;100884.47;13073521;22;20056;-90
2022/10/05 15:10:25;;;;;;;4.05;2.20;;;;;;;16.48;100.00;100896.88;13102800;22;20163;-90
2022/10/05 15:15:53;;;;;;;3.70;2.83;;;;;;;17.40;100.00;101059.97;13089460;22;20333;-90
2022/10/05 15:21:08;;;;;;;3.15;2.45;;;;;;;17.34;100.00;101059.22;13086826;22;20363;-90
2022/10/05 15:26:15;;;;;;;6.97;2.58;;;;;;;17.29;100.00;101056.47;12994802;22;20007;-89
2022/10/05 15:31:50;;;;;;;2.72;2.30;;;;;;;16.10;100.00;100897.50;13086902;22;20026;-89
2022/10/05 15:37:24;;;;;;;4.63;2.20;;;;;;;17.24;100.00;101053.75;13110590;22;20367;-88
2022/10/05 15:42:31;;;;;;;6.20;2.50;;;;;;;16.73;100.00;101007.78;13004151;22;20077;-87
2022/10/05 15:47:51;;;;;;;5.80;2.67;;;;;;;17.02;100.00;101068.16;12960297;22;20022;-87
2022/10/05 15:53:01;;;;;;;6.30;3.00;;;;;;;16.22;100.00;100955.44;12966001;22;20029;-88
2022/10/05 15:58:16;;;;;;;4.05;2.92;;;;;;;16.21;100.00;100986.31;12998882;22;20475;-87
2022/10/05 16:03:22;;;;;;;;;;;;;;;16.77;100.00;101087.84;13010436;22;20175;-87
2022/10/05 16:09:02;;;;;;;5.85;2.75;;;;;;;15.41;100.00;100881.88;13017202;22;19910;-87
2022/10/05 16:14:29;;;;;;;6.40;2.90;;;;;;;15.65;100.00;100929.19;13114627;22;20006;-86
2022/10/05 16:19:45;;;;;;;5.43;3.00;;;;;;;15.13;100.00;100842.63;13084103;22;20008;-85
2022/10/05 16:25:02;;;;;;;6.97;3.05;;;;;;;15.93;100.00;101005.34;12905791;22;20238;-86
2022/10/05 16:30:12;;;;;;;4.35;3.58;;;;;;;16.40;100.00;101136.47;13080534;22;20021;-87
2022/10/05 16:35:16;;;;;;;17.58;3.58;;;;;;;16.27;100.00;101097.09;13071050;22;20003;-87
2022/10/05 16:40:25;;;;;;;4.93;3.10;;;;;;;15.14;100.00;100914.44;13089758;22;20341;-86
2022/10/05 16:45:32;;;;;;;6.93;3.60;;;;;;;16.31;100.00;101092.63;13093615;22;20009;-86
2022/10/05 16:50:53;;;;;;;4.13;3.47;;;;;;;16.30;100.00;101088.16;13096339;22;20328;-87
2022/10/05 16:56:01;;;;;;;4.25;2.60;;;;;;;15.07;100.00;100891.75;13075331;22;20003;-87
2022/10/05 17:01:20;;;;;;;4.35;2.95;;;;;;;16.38;100.00;101086.72;13036222;22;20003;-88
2022/10/05 17:06:54;;;;;;;3.80;2.50;;;;;;;14.51;100.00;100803.25;13107048;22;20393;-87
2022/10/05 17:12:18;;;;;;;4.28;2.20;;;;;;;16.49;100.00;101095.81;13117832;22;20340;-88
2022/10/05 17:17:59;;;;;;;5.57;2.35;;;;;;;14.61;100.00;100772.75;13129455;22;20033;-87
2022/10/05 17:23:10;;;;;;;4.88;1.70;;;;;;;16.18;100.00;101020.19;12971233;22;20002;-87
2022/10/05 17:28:15;;;;;;;6.22;1.67;;;;;;;15.59;100.00;100949.75;13051095;22;20310;-86
2022/10/05 17:33:28;;;;;;;3.65;1.52;;;;;;;15.96;100.00;101017.81;13055819;22;20011;-86
2022/10/05 17:38:40;;;;;;;3.67;1.67;;;;;;;16.30;100.00;101040.94;12939395;22;19998;-90
2022/10/05 17:44:12;;;;;;;5.68;1.90;;;;;;;14.93;100.00;100830.53;12933558;22;20085;-87
2022/10/05 17:49:20;;;;;;;3.45;2.08;;;;;;;16.65;100.00;101089.03;12994083;22;20015;-89
2022/10/05 17:59:55;;;;;;;8.18;1.67;;;;;;;16.30;100.00;101070.69;13104209;22;20037;-89
2022/10/05 18:06:00;;;;;;;;;;;;;;;;;;;;;
2022/10/05 18:11:48;;;;;;;6.00;1.95;;;;;;;16.64;100.00;101111.56;12467210;23;20390;-88
2022/10/05 18:16:58;;;;;;;5.05;1.85;;;;;;;15.52;100.00;100941.72;12685641;23;20056;-88
2022/10/05 18:22:16;;;;;;;4.40;1.40;;;;;;;16.38;100.00;101049.78;12999133;22;20675;-88
2022/10/05 18:27:54;;;;;;;5.38;1.60;;;;;;;16.69;100.00;101098.44;13066155;22;20003;-89
2022/10/05 18:33:18;;;;;;;4.30;1.80;;;;;;;16.12;100.00;101019.41;13077379;22;20021;-88
2022/10/05 18:38:22;;;;;;;4.75;1.80;;;;;;;16.28;100.00;101070.13;13077108;22;20005;-88
2022/10/05 18:44:13;;;;;;;;;;;;;;;;;;;;;
2022/10/05 18:49:35;;;;;;;6.43;2.30;;;;;;;16.62;100.00;101125.75;12951095;22;20106;-90
2022/10/05 18:55:41;;;;;;;7.13;1.88;;;;;;;14.80;100.00;100819.22;12649542;23;20024;-90
2022/10/05 19:06:57;;;;;;;5.25;1.80;;;;;;;16.53;100.00;101110.81;12805735;22;20093;-87
2022/10/05 19:12:35;;;;;;;6.43;1.80;;;;;;;15.70;100.00;101010.44;12944770;22;20019;-85
2022/10/05 19:17:57;;;;;;;5.63;2.00;;;;;;;16.51;100.00;101126.94;12917928;22;20085;-85
2022/10/05 19:23:35;;;;;;;4.80;1.60;;;;;;;16.50;100.00;101128.06;12973694;22;20098;-84
2022/10/05 19:29:04;;;;;;;4.40;2.00;;;;;;;15.86;100.00;101052.88;13098834;22;20067;-84
2022/10/05 19:34:23;;;;;;;5.93;2.22;;;;;;;16.46;100.00;101129.75;13074911;22;20037;-85
2022/10/05 19:39:47;;;;;;;5.07;1.73;;;;;;;16.38;100.00;101170.09;13098437;22;20014;-86
2022/10/05 19:45:17;;;;;;;4.30;1.63;;;;;;;14.84;100.00;100936.72;13040598;22;20055;-88
2022/10/05 19:50:25;;;;;;;6.80;1.75;;;;;;;15.91;100.00;101126.97;13068763;22;20022;-87
2022/10/05 19:55:31;;;;;;;7.60;1.92;;;;;;;14.20;100.00;100952.88;13105374;22;20037;-88
2022/10/05 20:00:33;;;;;;;8.20;2.60;;;;;;;15.33;100.00;101188.44;13032732;22;20005;-91
2022/10/05 20:05:44;;;;;;;7.63;3.40;;;;;;;13.62;100.00;101026.91;12888411;22;20003;-95
2022/10/05 20:11:25;;;;;;;8.45;3.83;;;;;;;14.86;100.00;101319.81;12724258;22;20323;-96
2022/10/05 20:22:26;;;;;;;4.15;2.72;;;;;;;13.65;100.00;101267.91;12825514;22;20034;-89
2022/10/05 20:27:40;;;;;;;5.80;2.60;;;;;;;13.50;100.00;101251.22;12839379;22;20054;-90
2022/10/05 20:32:50;;;;;;;5.97;2.50;;;;;;;13.42;100.00;101265.53;12928448;22;20027;-94
2022/10/05 20:37:50;;;;;;;5.80;2.40;;;;;;;13.36;100.00;101310.84;12975109;22;20013;-90
2022/10/05 20:43:03;;;;;;;4.93;2.72;;;;;;;13.50;100.00;101318.44;12970686;22;20002;-95
2022/10/05 20:48:04;;;;;;;2.97;1.58;;;;;;;11.65;100.00;101038.59;13026930;22;20019;-93
2022/10/05 20:53:05;;;;;;;3.00;1.30;;;;;;;12.48;100.00;101198.53;12942041;22;20897;-91
2022/10/05 20:58:07;;;;;;;2.33;0.90;;;;;;;11.98;100.00;101167.28;13025527;22;20002;-91
2022/10/05 21:03:08;;;;;;;2.33;0.88;;;;;;;12.57;100.00;101266.03;13030398;22;20017;-92
2022/10/05 21:08:09;;;;;;;2.15;0.47;;;;;;;12.21;100.00;101231.63;13046120;22;20006;-92
2022/10/05 21:13:12;;;;;;;2.05;0.60;;;;;;;12.01;100.00;101165.94;13013987;22;20036;-92
2022/10/05 21:18:14;;;;;;;0.65;0.28;;;;;;;11.83;100.00;101167.91;13000657;22;20467;-94
2022/10/05 21:23:15;;;;;;;0.65;0.32;;;;;;;11.93;100.00;101207.78;13049239;22;20025;-92
2022/10/05 21:28:20;;;;;;;1.15;0.22;;;;;;;11.31;100.00;101119.47;12908008;22;20041;-93
2022/10/05 21:33:34;;;;;;;;;;;;;;;;;;;;;
2022/10/05 21:38:37;;;;;;;1.52;0.30;;;;;;;12.20;100.00;101302.56;12915973;22;20077;-93
2022/10/05 21:43:38;;;;;;;2.13;0.40;;;;;;;12.32;100.00;101280.34;12994788;22;20011;-92
2022/10/05 21:48:39;;;;;;;2.97;0.88;;;;;;;12.05;100.00;101241.59;13025000;22;20033;-93
2022/10/05 21:53:48;;;;;;;3.20;0.30;;;;;;;10.93;100.00;101125.78;12924855;22;20065;-92
2022/10/05 21:58:51;;;;;;;1.75;0.30;;;;;;;12.91;100.00;101481.41;12915649;22;20033;-92
2022/10/05 22:03:52;;;;;;;1.23;0.40;;;;;;;11.40;100.00;101265.16;12914289;22;20070;-92
2022/10/05 22:08:53;;;;;;;1.60;0.35;;;;;;;12.11;100.00;101400.66;12924939;22;20041;-93
2022/10/05 22:14:00;;;;;;;6.53;0.70;;;;;;;11.72;100.00;101290.22;12880215;22;20026;-93
2022/10/05 22:19:13;;;;;;;3.72;1.10;;;;;;;13.17;100.00;101567.44;12947215;22;20011;-92
2022/10/05 22:24:18;;;;;;;4.22;0.70;;;;;;;11.71;100.00;101291.31;12927028;22;20021;-94
2022/10/05 22:29:19;;;;;;;1.52;0.60;;;;;;;11.67;100.00;101287.38;12905719;22;20025;-93
2022/10/05 22:34:20;;;;;;;5.63;0.70;;;;;;;12.37;100.00;101401.06;12973854;22;20015;-92
2022/10/05 22:39:21;;;;;;;4.82;0.52;;;;;;;11.93;100.00;101345.72;12973169;22;20429;-94
2022/10/05 22:44:42;;;;;;;;;;;;;;;;;;;;;
2022/10/05 22:49:54;;;;;;;5.95;1.60;;;;;;;11.47;100.00;101357.66;12760366;22;20065;-93
2022/10/05 23:02:00;;;;;;;6.50;0.88;;;;;;;11.16;100.00;101317.66;12634428;22;20041;-92
2022/10/05 23:13:31;;;;;;;9.25;1.20;;;;;;;11.10;100.00;101395.81;12865323;22;20015;-89
2022/10/05 23:18:36;;;;;;;7.88;1.25;;;;;;;11.00;100.00;101395.63;12969904;22;20332;-93
2022/10/05 23:23:39;;;;;;;7.55;0.80;;;;;;;11.01;100.00;101386.25;12918624;22;20064;-92
2022/10/05 23:28:58;;;;;;;;;;;;;;;;;;;;;
2022/10/05 23:34:28;;;;;;;8.85;0.98;;;;;;;11.34;100.00;101473.72;12815384;22;20397;-92
2022/10/05 23:39:32;;;;;;;7.18;1.02;;;;;;;11.95;100.00;101638.81;12907261;22;20003;-92
2022/10/05 23:44:33;;;;;;;10.27;0.90;;;;;;;10.84;100.00;101399.97;12975090;22;20326;-93
2022/10/05 23:49:33;;;;;;;7.72;0.90;;;;;;;11.24;100.00;101465.25;13074808;22;20018;-92
2022/10/05 23:54:34;;;;;;;10.15;0.98;;;;;;;11.16;100.00;101505.06;13022867;22;20053;-92
2022/10/05 23:59:35;;;;;;;7.43;0.93;;;;;;;11.22;100.00;101520.63;13001789;22;20062;-91
